createdAt,value
2017-07-14T00:01:49.076Z,11.60
2017-07-14T00:04:16.519Z,11.60
2017-07-14T00:06:43.991Z,11.60
2017-07-14T00:09:11.435Z,11.60
2017-07-14T00:11:38.885Z,11.40
2017-07-14T00:14:06.364Z,11.20
2017-07-14T00:16:33.811Z,11.00
2017-07-14T00:19:01.253Z,10.90
2017-07-14T00:21:28.712Z,10.80
2017-07-14T00:23:56.167Z,10.70
2017-07-14T00:26:23.624Z,10.90
2017-07-14T00:28:51.060Z,11.10
2017-07-14T00:31:18.496Z,11.30
2017-07-14T00:33:46.739Z,11.40
2017-07-14T00:36:14.184Z,11.40
2017-07-14T00:38:41.632Z,11.40
2017-07-14T00:41:09.115Z,11.40
2017-07-14T00:43:36.685Z,11.40
2017-07-14T00:46:04.125Z,11.40
2017-07-14T00:48:31.684Z,11.40
2017-07-14T00:50:59.127Z,11.40
2017-07-14T00:53:26.587Z,11.30
2017-07-14T00:55:54.029Z,11.10
2017-07-14T00:58:21.476Z,10.90
2017-07-14T01:00:48.911Z,10.90
2017-07-14T01:03:16.363Z,10.80
2017-07-14T01:05:44.595Z,10.70
2017-07-14T01:08:12.048Z,10.70
2017-07-14T01:10:39.517Z,10.70
2017-07-14T01:13:06.961Z,10.70
2017-07-14T01:15:34.412Z,10.70
2017-07-14T01:18:01.879Z,10.80
2017-07-14T01:20:29.444Z,10.70
2017-07-14T01:22:56.884Z,10.80
2017-07-14T01:25:24.356Z,10.80
2017-07-14T01:27:51.801Z,10.50
2017-07-14T01:30:19.268Z,10.40
2017-07-14T01:32:46.716Z,10.40
2017-07-14T01:35:14.160Z,10.30
2017-07-14T01:37:41.640Z,10.10
2017-07-14T01:40:09.108Z,10.00
2017-07-14T01:42:36.667Z,10.00
2017-07-14T01:45:04.107Z,10.20
2017-07-14T01:47:31.649Z,10.40
2017-07-14T01:49:59.127Z,10.50
2017-07-14T01:52:26.688Z,10.60
2017-07-14T01:54:54.138Z,10.40
2017-07-14T01:57:21.592Z,10.30
2017-07-14T01:59:49.064Z,10.20
2017-07-14T02:02:16.516Z,10.20
2017-07-14T02:04:43.961Z,10.30
2017-07-14T02:07:11.411Z,10.30
2017-07-14T02:09:38.858Z,10.30
2017-07-14T02:12:06.308Z,10.40
2017-07-14T02:14:33.748Z,10.50
2017-07-14T02:17:01.273Z,10.60
2017-07-14T02:19:28.724Z,10.60
2017-07-14T02:21:56.189Z,10.60
2017-07-14T02:24:23.728Z,10.50
2017-07-14T02:26:51.175Z,10.50
2017-07-14T02:29:18.647Z,10.50
2017-07-14T02:31:46.112Z,10.50
2017-07-14T02:34:13.560Z,10.40
2017-07-14T02:36:40.999Z,10.30
2017-07-14T02:39:08.451Z,10.10
2017-07-14T02:41:35.905Z,10.00
2017-07-14T02:44:03.384Z,10.10
2017-07-14T02:46:30.824Z,10.20
2017-07-14T02:48:58.281Z,10.30
2017-07-14T02:51:25.768Z,10.20
2017-07-14T02:53:53.216Z,10.10
2017-07-14T02:56:20.656Z,10.00
2017-07-14T02:58:48.116Z,10.00
2017-07-14T03:01:15.588Z,10.10
2017-07-14T03:03:43.060Z,10.20
2017-07-14T03:06:10.499Z,10.40
2017-07-14T03:08:37.940Z,10.60
2017-07-14T03:11:05.396Z,10.70
2017-07-14T03:13:32.872Z,10.80
2017-07-14T03:16:00.324Z,10.90
2017-07-14T03:18:27.763Z,11.00
2017-07-14T03:20:55.216Z,11.00
2017-07-14T03:23:22.700Z,11.00
2017-07-14T03:25:50.252Z,11.20
2017-07-14T03:28:17.724Z,11.30
2017-07-14T03:30:45.172Z,11.40
2017-07-14T03:33:12.631Z,11.10
2017-07-14T03:35:40.193Z,11.00
2017-07-14T03:38:07.628Z,10.80
2017-07-14T03:40:35.084Z,10.70
2017-07-14T03:43:02.556Z,10.80
2017-07-14T03:45:30.115Z,10.80
2017-07-14T03:47:57.560Z,10.80
2017-07-14T03:50:25.045Z,10.70
2017-07-14T03:52:52.503Z,10.70
2017-07-14T03:55:20.044Z,10.80
2017-07-14T03:57:47.604Z,10.70
2017-07-14T04:00:15.059Z,10.70
2017-07-14T04:02:42.516Z,10.70
2017-07-14T04:05:09.983Z,10.80
2017-07-14T04:07:37.551Z,10.80
2017-07-14T04:10:04.992Z,10.80
2017-07-14T04:12:32.448Z,10.50
2017-07-14T04:14:59.892Z,10.30
2017-07-14T04:17:27.348Z,10.20
2017-07-14T04:19:54.806Z,10.20
2017-07-14T04:22:22.295Z,10.10
2017-07-14T04:24:49.738Z,10.20
2017-07-14T04:27:17.180Z,10.40
2017-07-14T04:29:44.628Z,10.60
2017-07-14T04:32:12.068Z,10.70
2017-07-14T04:34:39.568Z,10.90
2017-07-14T04:37:07.013Z,11.20
2017-07-14T04:39:34.463Z,11.40
2017-07-14T04:42:01.944Z,11.60
2017-07-14T04:44:29.399Z,11.80
2017-07-14T04:46:56.865Z,11.90
2017-07-14T04:49:24.316Z,12.00
2017-07-14T04:51:51.762Z,12.10
2017-07-14T04:54:19.219Z,12.10
2017-07-14T04:56:46.657Z,12.30
2017-07-14T04:59:14.932Z,12.40
2017-07-14T05:01:42.408Z,12.50
2017-07-14T05:04:09.852Z,12.20
2017-07-14T05:06:37.320Z,12.10
2017-07-14T05:09:04.764Z,12.40
2017-07-14T05:11:32.240Z,12.60
2017-07-14T05:13:59.680Z,12.70
2017-07-14T05:16:27.136Z,13.00
2017-07-14T05:18:54.608Z,13.30
2017-07-14T05:21:22.059Z,13.40
2017-07-14T05:23:49.520Z,13.40
2017-07-14T05:26:17.093Z,13.40
2017-07-14T05:28:44.528Z,13.50
2017-07-14T05:31:11.984Z,13.60
2017-07-14T05:33:39.426Z,13.60
2017-07-14T05:36:06.884Z,13.60
2017-07-14T05:38:34.327Z,13.80
2017-07-14T05:41:01.779Z,14.10
2017-07-14T05:43:29.225Z,14.20
2017-07-14T05:45:57.440Z,14.20
2017-07-14T05:48:24.907Z,14.20
2017-07-14T05:50:52.377Z,14.20
2017-07-14T05:53:19.820Z,14.20
2017-07-14T05:55:47.289Z,14.10
2017-07-14T05:58:14.741Z,14.00
2017-07-14T06:00:42.195Z,14.00
2017-07-14T06:03:09.650Z,14.20
2017-07-14T06:05:37.091Z,14.30
2017-07-14T06:08:04.552Z,14.30
2017-07-14T06:10:32.024Z,14.40
2017-07-14T06:12:59.476Z,14.40
2017-07-14T06:15:26.917Z,14.40
2017-07-14T06:17:54.395Z,14.30
2017-07-14T06:20:21.840Z,14.20
2017-07-14T06:22:49.296Z,14.10
2017-07-14T06:25:16.772Z,14.10
2017-07-14T06:27:44.336Z,14.20
2017-07-14T06:30:11.784Z,14.10
2017-07-14T06:32:39.236Z,14.10
2017-07-14T06:35:06.681Z,14.10
2017-07-14T06:37:34.148Z,13.90
2017-07-14T06:40:01.603Z,13.70
2017-07-14T06:42:29.069Z,13.50
2017-07-14T06:44:56.629Z,13.50
2017-07-14T06:47:24.070Z,13.80
2017-07-14T06:49:51.528Z,14.20
2017-07-14T06:52:18.972Z,14.20
2017-07-14T06:54:46.432Z,14.20
2017-07-14T06:57:13.863Z,14.20
2017-07-14T06:59:41.374Z,14.30
2017-07-14T07:02:08.832Z,14.60
2017-07-14T07:04:36.385Z,14.90
2017-07-14T07:07:03.844Z,15.30
2017-07-14T07:09:31.401Z,15.80
2017-07-14T07:11:58.861Z,16.30
2017-07-14T07:14:26.312Z,16.50
2017-07-14T07:16:53.889Z,16.40
2017-07-14T07:19:21.428Z,16.70
2017-07-14T07:21:48.876Z,17.20
2017-07-14T07:24:16.328Z,17.40
2017-07-14T07:26:43.788Z,17.70
2017-07-14T07:29:11.260Z,18.10
2017-07-14T07:31:38.816Z,18.50
2017-07-14T07:34:06.273Z,18.80
2017-07-14T07:36:33.724Z,18.90
2017-07-14T07:39:01.164Z,19.20
2017-07-14T07:41:28.624Z,19.20
2017-07-14T07:43:56.068Z,19.00
2017-07-14T07:46:29.315Z,19.00
2017-07-14T07:49:02.496Z,18.70
2017-07-14T07:51:30.052Z,19.20
2017-07-14T07:53:57.488Z,20.00
2017-07-14T07:56:24.957Z,20.60
2017-07-14T07:58:52.409Z,21.20
2017-07-14T08:01:19.848Z,22.10
2017-07-14T08:03:47.297Z,22.80
2017-07-14T08:06:14.736Z,23.10
2017-07-14T08:08:42.188Z,23.30
2017-07-14T08:11:09.632Z,23.70
2017-07-14T08:13:37.080Z,24.00
2017-07-14T08:16:04.523Z,23.60
2017-07-14T08:18:31.976Z,23.70
2017-07-14T08:20:59.424Z,23.60
2017-07-14T08:23:26.886Z,23.80
2017-07-14T08:25:54.328Z,23.80
2017-07-14T08:28:21.783Z,23.30
2017-07-14T08:30:49.220Z,22.80
2017-07-14T08:33:16.698Z,22.40
2017-07-14T08:35:44.147Z,22.20
2017-07-14T08:38:11.584Z,22.00
2017-07-14T08:40:39.033Z,21.90
2017-07-14T08:43:06.473Z,21.90
2017-07-14T08:45:34.701Z,22.40
2017-07-14T08:48:02.146Z,22.40
2017-07-14T08:50:29.609Z,22.80
2017-07-14T08:52:57.045Z,23.50
2017-07-14T08:55:24.495Z,23.50
2017-07-14T08:57:51.944Z,23.50
2017-07-14T09:00:19.400Z,23.60
2017-07-14T09:02:47.605Z,23.30
2017-07-14T09:05:15.048Z,23.20
2017-07-14T09:07:42.500Z,22.80
2017-07-14T09:10:09.944Z,22.90
2017-07-14T09:12:37.405Z,22.70
2017-07-14T09:15:04.843Z,22.40
2017-07-14T09:17:33.068Z,22.10
2017-07-14T09:20:00.517Z,22.10
2017-07-14T09:22:27.973Z,21.70
2017-07-14T09:24:55.412Z,21.60
2017-07-14T09:27:22.868Z,21.70
2017-07-14T09:29:50.308Z,21.70
2017-07-14T09:32:18.523Z,21.90
2017-07-14T09:34:45.960Z,21.90
2017-07-14T09:37:13.417Z,21.90
2017-07-14T09:39:40.852Z,22.20
2017-07-14T09:42:09.059Z,22.30
2017-07-14T09:44:36.525Z,22.20
2017-07-14T09:47:03.968Z,22.30
2017-07-14T09:49:31.420Z,22.50
2017-07-14T09:51:58.860Z,22.60
2017-07-14T09:54:26.313Z,22.50
2017-07-14T09:56:54.524Z,22.10
2017-07-14T09:59:21.979Z,22.10
2017-07-14T10:01:49.420Z,22.00
2017-07-14T10:04:16.884Z,22.00
2017-07-14T10:06:44.324Z,22.10
2017-07-14T10:09:11.776Z,22.70
2017-07-14T10:11:39.980Z,25.30
2017-07-14T10:14:07.438Z,25.20
2017-07-14T10:16:34.881Z,26.20
2017-07-14T10:19:02.335Z,26.80
2017-07-14T10:21:29.776Z,26.70
2017-07-14T10:23:57.220Z,26.60
2017-07-14T10:26:25.439Z,27.70
2017-07-14T10:28:52.897Z,27.70
2017-07-14T10:31:20.341Z,28.20
2017-07-14T10:33:47.776Z,28.80
2017-07-14T10:36:16.000Z,29.50
2017-07-14T10:38:43.444Z,29.50
2017-07-14T10:41:10.899Z,29.80
2017-07-14T10:43:38.337Z,29.80
2017-07-14T10:46:05.785Z,30.00
2017-07-14T10:48:33.224Z,30.30
2017-07-14T10:51:01.432Z,30.70
2017-07-14T10:53:28.888Z,30.70
2017-07-14T10:55:56.328Z,31.30
2017-07-14T10:58:23.780Z,31.20
2017-07-14T11:00:51.988Z,31.00
2017-07-14T11:03:19.439Z,31.00
2017-07-14T11:05:46.877Z,31.00
2017-07-14T11:08:14.331Z,29.90
2017-07-14T11:10:41.769Z,29.10
2017-07-14T11:13:09.987Z,30.30
2017-07-14T11:15:37.429Z,30.20
2017-07-14T11:18:04.879Z,31.00
2017-07-14T11:20:32.325Z,31.80
2017-07-14T11:23:00.559Z,32.40
2017-07-14T11:25:28.013Z,32.30
2017-07-14T11:27:55.464Z,31.60
2017-07-14T11:30:22.917Z,30.90
2017-07-14T11:32:50.364Z,31.10
2017-07-14T11:35:17.813Z,31.00
2017-07-14T11:37:45.266Z,30.70
2017-07-14T11:40:12.707Z,30.60
2017-07-14T11:42:40.147Z,30.30
2017-07-14T11:45:08.368Z,30.10
2017-07-14T11:47:35.819Z,30.10
2017-07-14T11:50:03.276Z,30.50
2017-07-14T11:52:30.723Z,31.10
2017-07-14T11:54:58.172Z,32.10
2017-07-14T11:57:25.616Z,31.80
2017-07-14T11:59:53.069Z,31.50
2017-07-14T12:02:21.280Z,31.10
2017-07-14T12:04:48.735Z,31.10
2017-07-14T12:07:16.180Z,30.30
2017-07-14T12:09:43.631Z,30.10
2017-07-14T12:12:11.067Z,30.70
2017-07-14T12:14:39.300Z,29.90
2017-07-14T12:17:06.748Z,29.80
2017-07-14T12:19:34.193Z,29.60
2017-07-14T12:22:01.653Z,29.90
2017-07-14T12:24:29.110Z,30.40
2017-07-14T12:26:56.568Z,30.30
2017-07-14T12:29:24.005Z,30.00
2017-07-14T12:31:51.456Z,30.20
2017-07-14T12:34:18.904Z,30.70
2017-07-14T12:36:46.353Z,31.50
2017-07-14T12:39:14.567Z,32.50
2017-07-14T12:41:42.026Z,32.40
2017-07-14T12:44:09.464Z,32.90
2017-07-14T12:46:36.916Z,33.10
2017-07-14T12:49:04.364Z,32.70
2017-07-14T12:51:31.815Z,31.90
2017-07-14T12:54:00.027Z,30.60
2017-07-14T12:56:27.480Z,30.60
2017-07-14T12:58:54.927Z,30.70
2017-07-14T13:01:22.376Z,30.60
2017-07-14T13:03:49.824Z,30.80
2017-07-14T13:06:17.272Z,31.60
2017-07-14T13:08:45.482Z,30.90
2017-07-14T13:11:12.920Z,30.90
2017-07-14T13:13:40.367Z,31.30
2017-07-14T13:16:07.813Z,31.30
2017-07-14T13:18:36.040Z,31.90
2017-07-14T13:21:03.485Z,31.80
2017-07-14T13:23:30.927Z,31.80
2017-07-14T13:25:58.373Z,31.30
2017-07-14T13:28:25.822Z,30.70
2017-07-14T13:30:53.270Z,30.00
2017-07-14T13:33:21.485Z,29.90
2017-07-14T13:35:48.928Z,29.90
2017-07-14T13:38:16.376Z,30.30
2017-07-14T13:40:43.816Z,30.50
2017-07-14T13:43:12.040Z,29.30
2017-07-14T13:45:39.476Z,29.20
2017-07-14T13:48:06.938Z,29.30
2017-07-14T13:50:34.376Z,29.90
2017-07-14T13:53:01.857Z,30.60
2017-07-14T13:55:29.296Z,30.60
2017-07-14T13:57:56.736Z,30.50
2017-07-14T14:00:24.201Z,30.30
2017-07-14T14:02:52.428Z,30.20
2017-07-14T14:05:19.893Z,30.20
2017-07-14T14:07:47.340Z,30.50
2017-07-14T14:10:14.811Z,30.20
2017-07-14T14:12:42.246Z,30.80
2017-07-14T14:15:09.699Z,31.30
2017-07-14T14:17:37.144Z,31.60
2017-07-14T14:20:04.599Z,31.50
2017-07-14T14:22:32.047Z,31.20
2017-07-14T14:24:59.496Z,30.90
2017-07-14T14:27:26.948Z,31.00
2017-07-14T14:29:54.400Z,30.60
2017-07-14T14:32:21.841Z,30.40
2017-07-14T14:34:50.077Z,29.20
2017-07-14T14:37:17.516Z,29.20
2017-07-14T14:39:44.956Z,29.10
2017-07-14T14:42:12.416Z,28.70
2017-07-14T14:44:39.861Z,28.60
2017-07-14T14:47:07.354Z,28.40
2017-07-14T14:49:34.764Z,28.80
2017-07-14T14:52:02.219Z,28.90
2017-07-14T14:54:29.664Z,29.30
2017-07-14T14:56:57.124Z,30.20
2017-07-14T14:59:25.336Z,30.10
2017-07-14T15:01:52.797Z,30.00
2017-07-14T15:04:20.237Z,29.60
2017-07-14T15:06:47.677Z,29.10
2017-07-14T15:09:15.905Z,28.00
2017-07-14T15:11:43.348Z,28.00
2017-07-14T15:14:10.804Z,27.80
2017-07-14T15:16:38.244Z,28.00
2017-07-14T15:19:05.718Z,28.70
2017-07-14T15:21:33.144Z,28.90
2017-07-14T15:24:00.593Z,28.90
2017-07-14T15:26:28.797Z,30.00
2017-07-14T15:28:56.291Z,29.90
2017-07-14T15:31:23.709Z,30.30
2017-07-14T15:33:51.172Z,30.20
2017-07-14T15:36:18.608Z,30.00
2017-07-14T15:38:46.056Z,29.00
2017-07-14T15:41:14.267Z,28.00
2017-07-14T15:43:41.732Z,28.00
2017-07-14T15:46:09.180Z,27.70
2017-07-14T15:48:36.620Z,27.90
2017-07-14T15:51:04.072Z,28.20
2017-07-14T15:53:31.512Z,28.50
2017-07-14T15:55:59.736Z,27.70
2017-07-14T15:58:27.180Z,27.70
2017-07-14T16:00:54.641Z,27.70
2017-07-14T16:03:22.099Z,27.70
2017-07-14T16:05:49.550Z,27.80
2017-07-14T16:08:16.994Z,27.80
2017-07-14T16:10:44.440Z,27.50
2017-07-14T16:13:11.891Z,27.90
2017-07-14T16:15:39.340Z,28.20
2017-07-14T16:18:07.548Z,26.80
2017-07-14T16:20:34.999Z,26.70
2017-07-14T16:23:02.439Z,26.40
2017-07-14T16:25:29.888Z,26.30
2017-07-14T16:27:58.109Z,26.60
2017-07-14T16:30:25.548Z,26.50
2017-07-14T16:32:53.000Z,26.80
2017-07-14T16:35:20.441Z,27.00
2017-07-14T16:37:47.893Z,26.80
2017-07-14T16:40:16.111Z,26.60
2017-07-14T16:42:43.564Z,26.60
2017-07-14T16:45:11.012Z,26.40
2017-07-14T16:47:38.463Z,26.10
2017-07-14T16:52:39.832Z,25.80
2017-07-14T16:55:07.273Z,25.60
2017-07-14T16:57:34.731Z,25.60
2017-07-14T17:00:02.167Z,25.40
2017-07-14T17:02:30.396Z,24.50
2017-07-14T17:04:57.836Z,24.40
2017-07-14T17:07:25.281Z,23.90
2017-07-14T17:09:52.732Z,22.20
2017-07-14T17:12:20.175Z,21.00
2017-07-14T17:14:47.629Z,19.90
2017-07-14T17:17:15.068Z,19.40
2017-07-14T17:19:42.521Z,18.90
2017-07-14T17:22:09.970Z,18.30
2017-07-14T17:24:37.421Z,17.50
2017-07-14T17:27:04.864Z,17.10
2017-07-14T17:29:32.329Z,16.80
2017-07-14T17:31:59.768Z,16.50
2017-07-14T17:34:27.228Z,16.30
2017-07-14T17:36:54.670Z,16.00
2017-07-14T17:39:22.127Z,15.80
2017-07-14T17:41:49.568Z,15.70
2017-07-14T17:44:17.040Z,15.60
2017-07-14T17:46:44.487Z,15.50
2017-07-14T17:49:11.936Z,15.30
2017-07-14T17:51:39.389Z,15.10
2017-07-14T17:54:06.829Z,15.10
2017-07-14T17:56:34.284Z,15.00
2017-07-14T17:59:02.499Z,14.90
2017-07-14T18:01:29.961Z,14.80
2017-07-14T18:03:57.417Z,14.80
2017-07-14T18:06:24.870Z,14.70
2017-07-14T18:08:52.307Z,14.60
2017-07-14T18:11:19.760Z,14.60
2017-07-14T18:13:47.209Z,14.50
2017-07-14T18:16:15.466Z,14.30
2017-07-14T18:18:42.897Z,14.30
2017-07-14T18:21:10.351Z,14.30
2017-07-14T18:23:37.807Z,14.30
2017-07-14T18:26:05.248Z,14.30
2017-07-14T18:28:32.699Z,14.40
2017-07-14T18:31:00.144Z,14.40
2017-07-14T18:33:27.607Z,14.40
2017-07-14T18:35:55.040Z,14.40
2017-07-14T18:38:22.492Z,14.40
2017-07-14T18:40:49.943Z,14.40
2017-07-14T18:43:17.411Z,14.40
2017-07-14T18:45:44.851Z,14.50
2017-07-14T18:48:13.068Z,14.50
2017-07-14T18:50:40.519Z,14.50
2017-07-14T18:53:07.964Z,14.50
2017-07-14T18:55:35.416Z,14.50
2017-07-14T18:58:02.860Z,14.40
2017-07-14T19:00:30.316Z,14.30
2017-07-14T19:02:57.751Z,14.30
2017-07-14T19:05:25.208Z,14.20
2017-07-14T19:07:52.663Z,14.20
2017-07-14T19:10:20.104Z,14.10
2017-07-14T19:12:47.540Z,14.00
2017-07-14T19:15:14.995Z,13.90
2017-07-14T19:17:42.440Z,13.90
2017-07-14T19:20:09.888Z,13.90
2017-07-14T19:22:37.323Z,13.90
2017-07-14T19:25:04.763Z,14.00
2017-07-14T19:27:32.232Z,13.90
2017-07-14T19:29:59.660Z,13.90
2017-07-14T19:32:27.120Z,13.90
2017-07-14T19:34:54.564Z,13.90
2017-07-14T19:37:22.028Z,14.00
2017-07-14T19:39:49.485Z,14.00
2017-07-14T19:42:16.934Z,14.10
2017-07-14T19:44:44.376Z,14.00
2017-07-14T19:47:11.833Z,14.10
2017-07-14T19:49:39.305Z,14.00
2017-07-14T19:52:06.748Z,14.00
2017-07-14T19:54:34.192Z,14.10
2017-07-14T19:57:01.648Z,14.10
2017-07-14T19:59:29.086Z,14.10
2017-07-14T20:01:57.315Z,14.10
2017-07-14T20:04:24.761Z,14.10
2017-07-14T20:06:52.209Z,14.10
2017-07-14T20:09:19.662Z,14.10
2017-07-14T20:11:47.107Z,14.00
2017-07-14T20:14:14.568Z,14.00
2017-07-14T20:16:42.005Z,14.00
2017-07-14T20:19:09.463Z,14.00
2017-07-14T20:21:36.900Z,14.00
2017-07-14T20:24:05.121Z,14.00
2017-07-14T20:26:32.559Z,14.00
2017-07-14T20:29:00.011Z,14.00
2017-07-14T20:31:27.455Z,14.10
2017-07-14T20:33:55.684Z,14.00
2017-07-14T20:36:23.132Z,14.00
2017-07-14T20:38:50.583Z,13.90
2017-07-14T20:41:18.020Z,14.00
2017-07-14T20:43:45.471Z,14.00
2017-07-14T20:46:12.916Z,14.00
2017-07-14T20:48:41.148Z,14.00
2017-07-14T20:51:08.603Z,13.90
2017-07-14T20:53:36.045Z,14.00
2017-07-14T20:56:03.495Z,14.00
2017-07-14T20:58:30.936Z,13.90
2017-07-14T21:00:58.388Z,13.90
2017-07-14T21:03:25.843Z,13.70
2017-07-14T21:05:53.296Z,13.80
2017-07-14T21:08:20.740Z,13.70
2017-07-14T21:10:48.966Z,13.70
2017-07-14T21:13:16.392Z,13.60
2017-07-14T21:15:43.851Z,13.60
2017-07-14T21:18:11.292Z,13.50
2017-07-14T21:20:38.732Z,13.50
2017-07-14T21:23:06.180Z,13.40
2017-07-14T21:25:33.623Z,13.50
2017-07-14T21:28:01.080Z,13.50
2017-07-14T21:30:28.520Z,13.50
2017-07-14T21:32:55.969Z,13.50
2017-07-14T21:35:23.417Z,13.50
2017-07-14T21:37:50.869Z,13.40
2017-07-14T21:40:18.308Z,13.30
2017-07-14T21:42:45.760Z,13.30
2017-07-14T21:45:13.972Z,13.30
2017-07-14T21:47:41.421Z,13.30
2017-07-14T21:50:08.852Z,13.20
2017-07-14T21:52:36.301Z,13.20
2017-07-14T21:55:03.744Z,13.20
2017-07-14T21:57:31.204Z,13.00
2017-07-14T21:59:59.417Z,13.00
2017-07-14T22:02:26.883Z,12.90
2017-07-14T22:04:54.339Z,13.00
2017-07-14T22:07:21.809Z,12.90
2017-07-14T22:09:49.244Z,12.90
2017-07-14T22:12:16.688Z,12.90
2017-07-14T22:14:44.148Z,12.80
2017-07-14T22:17:11.604Z,12.80
2017-07-14T22:19:39.048Z,12.80
2017-07-14T22:22:06.493Z,12.80
2017-07-14T22:24:34.723Z,12.80
2017-07-14T22:27:02.159Z,12.80
2017-07-14T22:29:29.607Z,12.80
2017-07-14T22:31:57.060Z,12.70
2017-07-14T22:34:24.512Z,12.70
2017-07-14T22:36:51.959Z,12.70
2017-07-14T22:39:20.184Z,12.70
2017-07-14T22:41:47.628Z,12.70
2017-07-14T22:44:15.092Z,12.70
2017-07-14T22:46:42.532Z,12.60
2017-07-14T22:49:10.001Z,12.60
2017-07-14T22:51:37.444Z,12.60
2017-07-14T22:54:04.891Z,12.50
2017-07-14T22:56:32.344Z,12.40
2017-07-14T22:58:59.793Z,12.40
2017-07-14T23:01:27.248Z,12.40
2017-07-14T23:03:54.700Z,12.30
2017-07-14T23:06:22.929Z,12.30
2017-07-14T23:08:50.380Z,12.30
2017-07-14T23:11:17.844Z,12.30
2017-07-14T23:13:45.316Z,12.30
2017-07-14T23:16:12.776Z,12.30
2017-07-14T23:18:40.223Z,12.30
2017-07-14T23:21:07.673Z,12.30
2017-07-14T23:23:35.132Z,12.20
2017-07-14T23:26:02.584Z,12.20
2017-07-14T23:28:30.036Z,12.20
2017-07-14T23:30:57.482Z,12.20
2017-07-14T23:33:24.944Z,12.10
2017-07-14T23:35:52.408Z,12.10
2017-07-14T23:38:19.879Z,12.10
2017-07-14T23:40:47.440Z,12.10
2017-07-14T23:43:14.921Z,12.10
2017-07-14T23:45:42.369Z,12.10
2017-07-14T23:48:09.920Z,12.10
2017-07-14T23:50:37.364Z,12.10
2017-07-14T23:53:04.820Z,12.10
2017-07-14T23:55:32.274Z,12.10
2017-07-14T23:57:59.733Z,12.00
